createdAt,value
2017-10-13T00:00:13.333Z,98424.66
2017-10-13T00:00:44.981Z,98433.60
2017-10-13T00:01:16.629Z,98426.36
2017-10-13T00:01:48.274Z,98425.94
2017-10-13T00:02:20.115Z,98427.22
2017-10-13T00:02:51.762Z,98433.60
2017-10-13T00:03:23.451Z,98444.24
2017-10-13T00:03:55.126Z,98441.69
2017-10-13T00:04:26.967Z,98445.09
2017-10-13T00:04:58.718Z,98444.66
2017-10-13T00:05:30.667Z,98443.39
2017-10-13T00:06:02.322Z,98442.96
2017-10-13T00:06:33.973Z,98450.23
2017-10-13T00:07:05.649Z,98442.97
2017-10-13T00:07:37.542Z,98447.23
2017-10-13T00:08:09.491Z,98445.95
2017-10-13T00:08:41.140Z,98445.09
2017-10-13T00:09:12.785Z,98449.35
2017-10-13T00:09:44.430Z,98450.62
2017-10-13T00:10:16.126Z,98448.89
2017-10-13T00:10:47.777Z,98448.08
2017-10-13T00:11:19.650Z,98449.78
2017-10-13T00:11:51.535Z,98452.75
2017-10-13T00:12:23.177Z,98449.78
2017-10-13T00:12:54.826Z,98452.33
2017-10-13T00:13:26.477Z,98445.09
2017-10-13T00:13:58.121Z,98438.28
2017-10-13T00:14:29.765Z,98450.20
2017-10-13T00:15:01.414Z,98451.05
2017-10-13T00:15:33.067Z,98446.37
2017-10-13T00:16:04.733Z,98448.92
2017-10-13T00:16:36.688Z,98448.08
2017-10-13T00:17:08.338Z,98445.94
2017-10-13T00:17:39.985Z,98451.48
2017-10-13T00:18:11.633Z,98453.60
2017-10-13T00:18:43.282Z,98447.22
2017-10-13T00:19:14.926Z,98448.50
2017-10-13T00:19:46.578Z,98449.34
2017-10-13T00:20:18.225Z,98442.96
2017-10-13T00:20:50.126Z,98443.81
2017-10-13T00:21:22.044Z,98442.11
2017-10-13T00:21:53.713Z,98439.13
2017-10-13T00:22:25.580Z,98443.78
2017-10-13T00:22:57.229Z,98440.80
2017-10-13T00:23:28.893Z,98440.80
2017-10-13T00:24:00.591Z,98436.96
2017-10-13T00:24:32.273Z,98437.39
2017-10-13T00:25:03.917Z,98436.97
2017-10-13T00:25:35.561Z,98442.92
2017-10-13T00:26:07.465Z,98436.53
2017-10-13T00:26:39.292Z,98438.66
2017-10-13T00:27:11.057Z,98439.94
2017-10-13T00:27:42.705Z,98436.11
2017-10-13T00:28:14.357Z,98435.69
2017-10-13T00:28:46.005Z,98436.53
2017-10-13T00:29:17.654Z,98437.81
2017-10-13T00:29:49.303Z,98442.50
2017-10-13T00:30:20.957Z,98432.71
2017-10-13T00:30:52.607Z,98439.52
2017-10-13T00:31:24.309Z,98438.67
2017-10-13T00:31:55.989Z,98429.77
2017-10-13T00:32:27.638Z,98443.81
2017-10-13T00:32:59.282Z,98442.96
2017-10-13T00:33:31.068Z,98442.53
2017-10-13T00:34:02.717Z,98446.80
2017-10-13T00:34:34.361Z,98446.80
2017-10-13T00:35:06.013Z,98445.95
2017-10-13T00:35:37.673Z,98447.69
2017-10-13T00:36:09.318Z,98449.39
2017-10-13T00:36:41.225Z,98449.39
2017-10-13T00:37:12.873Z,98446.84
2017-10-13T00:37:44.521Z,98444.28
2017-10-13T00:38:16.173Z,98453.22
2017-10-13T00:38:47.817Z,98444.28
2017-10-13T00:39:19.459Z,98449.39
2017-10-13T00:39:51.354Z,98445.56
2017-10-13T00:40:23.023Z,98451.94
2017-10-13T00:40:54.978Z,98461.31
2017-10-13T00:41:26.625Z,98458.76
2017-10-13T00:41:58.273Z,98452.84
2017-10-13T00:42:29.917Z,98457.95
2017-10-13T00:43:01.743Z,98456.67
2017-10-13T00:43:33.394Z,98457.09
2017-10-13T00:44:05.044Z,98452.41
2017-10-13T00:44:36.694Z,98457.95
2017-10-13T00:45:08.341Z,98459.65
2017-10-13T00:45:39.989Z,98455.39
2017-10-13T00:46:13.287Z,98457.09
2017-10-13T00:46:45.446Z,98452.84
2017-10-13T00:47:17.095Z,98455.82
2017-10-13T00:47:48.754Z,98451.59
2017-10-13T00:48:20.415Z,98447.73
2017-10-13T00:48:52.368Z,98454.12
2017-10-13T00:49:24.017Z,98451.99
2017-10-13T00:49:55.706Z,98451.18
2017-10-13T00:50:27.597Z,98451.17
2017-10-13T00:50:59.550Z,98451.61
2017-10-13T00:51:31.500Z,98451.61
2017-10-13T00:52:03.149Z,98455.86
2017-10-13T00:52:34.796Z,98454.20
2017-10-13T00:53:06.442Z,98453.73
2017-10-13T00:53:38.093Z,98454.16
2017-10-13T00:54:09.741Z,98459.69
2017-10-13T00:54:41.390Z,98461.78
2017-10-13T00:55:16.082Z,98456.67
2017-10-13T00:55:47.973Z,98457.52
2017-10-13T00:56:19.658Z,98463.05
2017-10-13T00:57:41.994Z,98456.25
2017-10-13T00:58:13.645Z,98456.25
2017-10-13T00:58:45.289Z,98458.80
2017-10-13T00:59:16.938Z,98452.84
2017-10-13T00:59:48.586Z,98457.09
2017-10-13T01:00:20.238Z,98457.95
2017-10-13T01:00:51.885Z,98452.84
2017-10-13T01:01:23.537Z,98452.80
2017-10-13T01:01:55.203Z,98453.27
2017-10-13T01:02:37.567Z,98451.98
2017-10-13T01:03:09.480Z,98449.86
2017-10-13T01:03:41.131Z,98448.58
2017-10-13T01:04:12.778Z,98451.13
2017-10-13T01:04:44.694Z,98445.99
2017-10-13T01:05:16.579Z,98447.69
2017-10-13T01:05:48.233Z,98449.82
2017-10-13T01:06:19.886Z,98446.45
2017-10-13T01:06:51.534Z,98449.02
2017-10-13T01:07:23.185Z,98449.44
2017-10-13T01:07:54.853Z,98453.69
2017-10-13T01:08:26.529Z,98449.86
2017-10-13T01:08:58.179Z,98452.41
2017-10-13T01:09:30.052Z,98449.44
2017-10-13T01:10:02.302Z,98448.58
2017-10-13T01:10:33.954Z,98451.56
2017-10-13T01:11:05.625Z,98448.59
2017-10-13T01:11:37.578Z,98451.56
2017-10-13T01:12:09.230Z,98449.86
2017-10-13T01:12:40.877Z,98446.88
2017-10-13T01:13:15.004Z,98451.56
2017-10-13T01:13:47.179Z,98449.86
2017-10-13T01:14:18.859Z,98452.42
2017-10-13T01:14:50.510Z,98447.31
2017-10-13T01:15:24.333Z,98443.52
2017-10-13T01:15:59.635Z,98446.06
2017-10-13T01:16:39.299Z,98446.92
2017-10-13T01:17:11.461Z,98446.53
2017-10-13T01:17:43.113Z,98447.81
2017-10-13T01:18:14.761Z,98447.77
2017-10-13T01:18:46.445Z,98453.31
2017-10-13T01:19:18.090Z,98449.05
2017-10-13T01:19:49.745Z,98449.94
2017-10-13T01:20:21.394Z,98441.42
2017-10-13T01:20:53.258Z,98448.66
2017-10-13T01:21:24.906Z,98453.34
2017-10-13T01:22:02.542Z,98451.64
2017-10-13T01:22:34.374Z,98454.16
2017-10-13T01:23:06.201Z,98445.27
2017-10-13T01:23:45.974Z,98454.63
2017-10-13T01:24:17.621Z,98450.37
2017-10-13T01:24:49.269Z,98444.83
2017-10-13T01:25:20.958Z,98442.28
2017-10-13T01:25:52.831Z,98439.72
2017-10-13T01:28:06.833Z,98437.17
2017-10-13T01:28:38.686Z,98435.47
2017-10-13T01:29:10.334Z,98438.87
2017-10-13T01:32:16.185Z,98437.17
2017-10-13T01:32:47.859Z,98449.09
2017-10-13T01:33:19.525Z,98442.70
2017-10-13T01:33:51.174Z,98444.83
2017-10-13T01:34:22.820Z,98442.75
2017-10-13T01:34:54.464Z,98440.62
2017-10-13T01:35:26.109Z,98441.05
2017-10-13T01:35:57.989Z,98441.47
2017-10-13T01:36:29.660Z,98441.86
2017-10-13T01:37:01.608Z,98434.62
2017-10-13T01:37:33.458Z,98442.75
2017-10-13T01:38:05.203Z,98436.78
2017-10-13T01:38:36.853Z,98438.48
2017-10-13T01:39:08.497Z,98443.17
2017-10-13T01:39:40.144Z,98431.25
2017-10-13T01:40:11.786Z,98432.11
2017-10-13T01:40:43.429Z,98436.79
2017-10-13T01:41:15.323Z,98439.34
2017-10-13T01:41:46.973Z,98435.09
2017-10-13T01:42:18.645Z,98435.09
2017-10-13T01:42:50.298Z,98430.83
2017-10-13T01:43:21.957Z,98431.25
2017-10-13T01:43:53.609Z,98434.66
2017-10-13T01:44:25.257Z,98436.78
2017-10-13T01:44:56.908Z,98428.70
2017-10-13T01:45:28.561Z,98438.49
2017-10-13T01:46:00.445Z,98437.64
2017-10-13T01:46:32.142Z,98434.66
2017-10-13T01:47:03.789Z,98432.14
2017-10-13T01:47:35.437Z,98433.42
2017-10-13T01:48:07.321Z,98427.05
2017-10-13T01:48:38.976Z,98432.15
2017-10-13T01:49:10.618Z,98434.28
2017-10-13T01:49:42.261Z,98430.87
2017-10-13T01:50:13.915Z,98435.55
2017-10-13T01:50:45.729Z,98425.80
2017-10-13T01:51:17.484Z,98436.41
2017-10-13T01:51:49.134Z,98433.00
2017-10-13T01:52:20.781Z,98435.55
2017-10-13T01:52:52.425Z,98431.30
2017-10-13T01:53:24.073Z,98428.74
2017-10-13T01:53:55.729Z,98422.36
2017-10-13T01:54:27.377Z,98424.06
2017-10-13T01:54:59.029Z,98429.59
2017-10-13T01:55:30.882Z,98427.93
2017-10-13T01:56:02.533Z,98432.19
2017-10-13T01:56:34.202Z,98427.93
2017-10-13T01:57:05.898Z,98423.64
2017-10-13T01:57:37.548Z,98428.36
2017-10-13T01:58:09.399Z,98427.47
2017-10-13T01:58:41.080Z,98429.59
2017-10-13T01:59:12.729Z,98426.61
2017-10-13T01:59:44.381Z,98424.06
2017-10-13T02:00:16.030Z,98426.61
2017-10-13T02:00:47.678Z,98430.45
2017-10-13T02:01:19.322Z,98430.45
2017-10-13T02:01:50.969Z,98431.73
2017-10-13T02:02:22.862Z,98426.61
2017-10-13T02:02:54.527Z,98429.17
2017-10-13T02:03:26.185Z,98426.58
2017-10-13T02:03:57.830Z,98425.73
2017-10-13T02:04:29.477Z,98427.89
2017-10-13T02:05:01.125Z,98429.17
2017-10-13T02:05:32.952Z,98430.44
2017-10-13T02:06:04.601Z,98427.47
2017-10-13T02:06:36.245Z,98428.28
2017-10-13T02:07:07.892Z,98432.11
2017-10-13T02:07:39.604Z,98437.25
2017-10-13T02:08:11.279Z,98430.02
2017-10-13T02:08:42.940Z,98439.34
2017-10-13T02:09:14.590Z,98424.91
2017-10-13T02:09:46.289Z,98437.67
2017-10-13T02:10:18.123Z,98435.12
2017-10-13T02:10:49.773Z,98438.50
2017-10-13T02:11:21.426Z,98441.51
2017-10-13T02:11:53.070Z,98443.61
2017-10-13T02:12:24.717Z,98440.20
2017-10-13T02:12:56.366Z,98437.25
2017-10-13T02:13:28.014Z,98438.11
2017-10-13T02:13:59.662Z,98439.77
2017-10-13T02:14:31.309Z,98439.77
2017-10-13T02:15:03.014Z,98438.92
2017-10-13T02:15:34.664Z,98440.63
2017-10-13T02:16:06.311Z,98440.66
2017-10-13T02:16:38.441Z,98441.51
2017-10-13T02:17:10.092Z,98444.91
2017-10-13T02:17:41.741Z,98450.45
2017-10-13T02:18:13.389Z,98439.81
2017-10-13T02:18:45.033Z,98447.51
2017-10-13T02:19:16.685Z,98443.67
2017-10-13T02:19:48.342Z,98448.78
2017-10-13T02:20:20.241Z,98447.47
2017-10-13T02:20:51.891Z,98443.21
2017-10-13T02:21:23.537Z,98452.16
2017-10-13T02:21:55.181Z,98444.06
2017-10-13T02:22:26.829Z,98449.17
2017-10-13T02:22:58.483Z,98450.88
2017-10-13T02:23:30.133Z,98454.31
2017-10-13T02:24:01.781Z,98448.78
2017-10-13T02:24:33.441Z,98441.55
2017-10-13T02:25:05.094Z,98450.48
2017-10-13T02:25:36.786Z,98447.52
2017-10-13T02:26:08.433Z,98448.36
2017-10-13T02:26:40.078Z,98449.25
2017-10-13T02:27:11.725Z,98442.83
2017-10-13T02:27:43.373Z,98454.78
2017-10-13T02:28:15.018Z,98453.94
2017-10-13T02:28:46.823Z,98449.25
2017-10-13T02:29:18.476Z,98445.00
2017-10-13T02:29:50.117Z,98449.25
2017-10-13T02:30:21.933Z,98446.27
2017-10-13T02:30:53.627Z,98446.70
2017-10-13T02:31:25.273Z,98447.55
2017-10-13T02:31:56.918Z,98450.53
2017-10-13T02:32:28.570Z,98453.51
2017-10-13T02:33:00.214Z,98457.34
2017-10-13T02:33:31.866Z,98450.95
2017-10-13T02:34:03.522Z,98450.53
2017-10-13T02:34:35.187Z,98457.77
2017-10-13T02:35:06.874Z,98453.94
2017-10-13T02:35:38.522Z,98450.10
2017-10-13T02:36:10.169Z,98456.87
2017-10-13T02:36:41.820Z,98452.53
2017-10-13T02:37:13.705Z,98455.01
2017-10-13T02:37:45.357Z,98460.54
2017-10-13T02:38:17.002Z,98459.23
2017-10-13T02:38:48.649Z,98452.03
2017-10-13T02:39:20.297Z,98446.50
2017-10-13T02:39:51.937Z,98452.92
2017-10-13T02:40:23.578Z,98453.35
2017-10-13T02:40:55.398Z,98458.08
2017-10-13T02:41:27.082Z,98459.39
2017-10-13T02:41:58.730Z,98458.53
2017-10-13T02:42:30.373Z,98460.27
2017-10-13T02:43:02.022Z,98469.22
2017-10-13T02:43:33.670Z,98471.77
2017-10-13T02:44:05.314Z,98462.36
2017-10-13T02:44:36.967Z,98461.86
2017-10-13T02:45:08.638Z,98465.18
2017-10-13T02:45:40.633Z,98459.61
2017-10-13T02:46:12.562Z,98463.36
2017-10-13T02:46:44.213Z,98463.28
2017-10-13T02:47:15.855Z,98491.41
2017-10-13T02:47:47.538Z,98460.75
2017-10-13T02:48:19.412Z,98461.31
2017-10-13T02:48:51.065Z,98459.47
2017-10-13T02:49:22.750Z,98466.11
2017-10-13T02:49:54.642Z,98465.91
2017-10-13T02:50:26.594Z,98461.40
2017-10-13T02:50:58.245Z,98463.30
2017-10-13T02:51:29.893Z,98471.07
2017-10-13T02:52:01.541Z,98461.84
2017-10-13T02:52:33.186Z,98467.45
2017-10-13T02:53:04.829Z,98469.58
2017-10-13T02:53:36.469Z,98467.84
2017-10-13T02:54:08.112Z,98466.52
2017-10-13T02:54:48.822Z,98469.83
2017-10-13T02:55:20.588Z,98470.58
2017-10-13T02:55:52.238Z,98469.28
2017-10-13T02:56:23.885Z,98470.89
2017-10-13T02:56:55.550Z,98473.80
2017-10-13T02:57:27.425Z,98466.99
2017-10-13T02:57:59.102Z,98465.65
2017-10-13T02:58:31.053Z,98467.70
2017-10-13T02:59:02.706Z,98471.92
2017-10-13T02:59:34.457Z,98468.48
2017-10-13T03:00:06.105Z,98476.14
2017-10-13T03:00:37.749Z,98461.66
2017-10-13T03:01:09.397Z,98459.95
2017-10-13T03:01:41.042Z,98464.62
2017-10-13T03:02:12.690Z,98463.35
2017-10-13T03:02:44.337Z,98464.62
2017-10-13T03:03:15.996Z,98461.65
2017-10-13T03:03:47.780Z,98464.20
2017-10-13T03:04:19.429Z,98456.97
2017-10-13T03:04:51.117Z,98462.50
2017-10-13T03:05:22.766Z,98457.83
2017-10-13T03:05:54.655Z,98452.72
2017-10-13T03:06:26.550Z,98463.78
2017-10-13T03:06:58.197Z,98465.91
2017-10-13T03:07:29.842Z,98460.77
2017-10-13T03:08:01.525Z,98459.06
2017-10-13T03:08:33.200Z,98461.19
2017-10-13T03:09:04.845Z,98457.78
2017-10-13T03:09:36.776Z,98456.94
2017-10-13T03:10:08.430Z,98452.22
2017-10-13T03:10:40.073Z,98456.47
2017-10-13T03:11:11.733Z,98457.29
2017-10-13T03:11:43.385Z,98462.39
2017-10-13T03:12:15.034Z,98462.36
2017-10-13T03:12:46.922Z,98461.93
2017-10-13T03:13:18.573Z,98466.61
2017-10-13T03:13:50.222Z,98464.91
2017-10-13T03:14:21.870Z,98467.42
2017-10-13T03:14:53.688Z,98466.16
2017-10-13T03:15:25.345Z,98467.42
2017-10-13T03:15:56.994Z,98466.58
2017-10-13T03:16:28.645Z,98468.67
2017-10-13T03:17:00.329Z,98461.01
2017-10-13T03:17:31.978Z,98470.36
2017-10-13T03:18:03.644Z,98470.33
2017-10-13T03:18:35.597Z,98469.48
2017-10-13T03:19:07.253Z,98467.78
2017-10-13T03:19:38.941Z,98467.35
2017-10-13T03:20:10.586Z,98467.34
2017-10-13T03:20:42.238Z,98467.34
2017-10-13T03:21:14.079Z,98469.02
2017-10-13T03:21:45.777Z,98469.44
2017-10-13T03:22:17.601Z,98468.59
2017-10-13T03:22:49.346Z,98466.46
2017-10-13T03:23:20.998Z,98461.78
2017-10-13T03:23:52.642Z,98472.84
2017-10-13T03:24:24.289Z,98466.00
2017-10-13T03:24:55.937Z,98467.28
2017-10-13T03:25:27.590Z,98468.98
2017-10-13T03:25:59.416Z,98466.00
2017-10-13T03:26:31.066Z,98470.68
2017-10-13T03:27:02.785Z,98468.55
2017-10-13T03:27:34.438Z,98472.77
2017-10-13T03:28:06.087Z,98465.11
2017-10-13T03:28:37.738Z,98471.92
2017-10-13T03:29:09.385Z,98472.77
2017-10-13T03:29:41.033Z,98476.17
2017-10-13T03:30:12.677Z,98472.77
2017-10-13T03:30:44.326Z,98473.62
2017-10-13T03:31:15.978Z,98480.42
2017-10-13T03:31:47.629Z,98476.56
2017-10-13T03:32:19.333Z,98476.98
2017-10-13T03:32:50.981Z,98479.55
2017-10-13T03:33:22.625Z,98478.70
2017-10-13T03:33:54.266Z,98479.55
2017-10-13T03:34:25.909Z,98477.84
2017-10-13T03:34:57.558Z,98476.59
2017-10-13T03:35:29.205Z,98476.56
2017-10-13T03:36:00.853Z,98479.97
2017-10-13T03:36:32.502Z,98479.12
2017-10-13T03:37:04.161Z,98479.97
2017-10-13T03:37:35.821Z,98475.75
2017-10-13T03:38:07.575Z,98476.60
2017-10-13T03:38:39.226Z,98468.09
2017-10-13T03:39:11.083Z,98478.73
2017-10-13T03:39:42.729Z,98479.16
2017-10-13T03:40:14.374Z,98480.86
2017-10-13T03:40:46.017Z,98480.86
2017-10-13T03:41:17.661Z,98484.69
2017-10-13T03:41:49.312Z,98486.81
2017-10-13T03:42:21.025Z,98484.27
2017-10-13T03:42:52.673Z,98484.72
2017-10-13T03:43:24.321Z,98488.55
2017-10-13T03:43:55.977Z,98482.20
2017-10-13T03:44:27.637Z,98489.83
2017-10-13T03:44:59.285Z,98487.28
2017-10-13T03:45:31.177Z,98487.70
2017-10-13T03:46:02.826Z,98494.12
2017-10-13T03:46:34.630Z,98487.73
2017-10-13T03:47:06.405Z,98486.89
2017-10-13T03:47:38.359Z,98488.59
2017-10-13T03:48:10.013Z,98489.05
2017-10-13T03:48:41.661Z,98485.65
2017-10-13T03:49:13.306Z,98492.48
2017-10-13T03:49:44.950Z,98492.48
2017-10-13T03:50:16.597Z,98492.91
2017-10-13T03:50:48.245Z,98488.23
2017-10-13T03:51:19.890Z,98492.06
2017-10-13T03:51:51.801Z,98494.23
2017-10-13T03:52:23.497Z,98492.95
2017-10-13T03:52:55.391Z,98495.50
2017-10-13T03:53:27.038Z,98498.06
2017-10-13T03:53:58.686Z,98494.69
2017-10-13T03:54:30.332Z,98505.29
2017-10-13T03:55:01.981Z,98498.09
2017-10-13T03:55:33.666Z,98499.79
2017-10-13T03:56:05.442Z,98499.79
2017-10-13T03:56:37.192Z,98499.79
2017-10-13T03:57:08.841Z,98506.17
2017-10-13T03:57:40.722Z,98506.60
2017-10-13T03:58:12.376Z,98504.47
2017-10-13T03:58:44.025Z,98509.19
2017-10-13T03:59:15.705Z,98505.36
2017-10-13T03:59:47.590Z,98506.24
2017-10-13T04:00:19.241Z,98507.94
2017-10-13T04:00:50.886Z,98505.81
2017-10-13T04:01:22.537Z,98507.52
2017-10-13T04:01:54.186Z,98500.71
2017-10-13T04:02:26.067Z,98504.12
2017-10-13T04:02:57.762Z,98502.84
2017-10-13T04:03:29.413Z,98499.89
2017-10-13T04:04:01.065Z,98503.30
2017-10-13T04:04:32.776Z,98507.55
2017-10-13T04:05:04.601Z,98504.15
2017-10-13T04:05:36.249Z,98505.85
2017-10-13T04:06:07.900Z,98504.57
2017-10-13T04:06:39.545Z,98513.93
2017-10-13T04:07:11.567Z,98510.98
2017-10-13T04:07:43.516Z,98513.11
2017-10-13T04:08:15.166Z,98515.67
2017-10-13T04:08:46.817Z,98512.69
2017-10-13T04:09:18.462Z,98513.11
2017-10-13T04:09:50.109Z,98510.98
2017-10-13T04:10:21.758Z,98513.54
2017-10-13T04:10:53.411Z,98505.49
2017-10-13T04:11:25.062Z,98511.88
2017-10-13T04:11:56.704Z,98506.77
2017-10-13T04:12:28.410Z,98505.91
2017-10-13T04:13:00.071Z,98505.49
2017-10-13T04:13:31.884Z,98510.17
2017-10-13T04:14:03.535Z,98501.23
2017-10-13T04:14:35.185Z,98501.27
2017-10-13T04:15:07.022Z,98501.70
2017-10-13T04:15:38.674Z,98499.14
2017-10-13T04:16:10.334Z,98499.57
2017-10-13T04:16:41.981Z,98502.13
2017-10-13T04:17:13.625Z,98508.95
2017-10-13T04:17:45.634Z,98502.58
2017-10-13T04:18:17.285Z,98503.43
2017-10-13T04:18:48.933Z,98502.58
2017-10-13T04:19:20.577Z,98501.30
2017-10-13T04:19:52.225Z,98494.53
2017-10-13T04:20:23.866Z,98502.58
2017-10-13T04:20:55.514Z,98495.81
2017-10-13T04:21:27.157Z,98502.61
2017-10-13T04:21:58.801Z,98498.36
2017-10-13T04:22:30.444Z,98495.81
2017-10-13T04:23:02.143Z,98501.77
2017-10-13T04:23:34.002Z,98496.23
2017-10-13T04:24:05.654Z,98502.19
2017-10-13T04:24:37.301Z,98500.48
2017-10-13T04:25:08.950Z,98503.92
2017-10-13T04:25:40.597Z,98505.20
2017-10-13T04:26:12.245Z,98511.15
2017-10-13T04:26:43.894Z,98507.75
2017-10-13T04:27:15.541Z,98500.09
2017-10-13T04:27:47.194Z,98509.02
2017-10-13T04:28:18.896Z,98512.03
2017-10-13T04:28:50.546Z,98506.08
2017-10-13T04:29:22.196Z,98506.50
2017-10-13T04:29:53.845Z,98494.17
2017-10-13T04:30:25.493Z,98507.81
2017-10-13T04:30:57.141Z,98505.27
2017-10-13T04:31:28.923Z,98509.94
2017-10-13T04:32:00.886Z,98509.52
2017-10-13T04:32:32.558Z,98510.36
2017-10-13T04:33:04.207Z,98511.60
2017-10-13T04:33:35.970Z,98507.78
2017-10-13T04:34:07.674Z,98516.70
2017-10-13T04:34:39.399Z,98517.13
2017-10-13T04:35:11.238Z,98517.13
2017-10-13T04:35:42.994Z,98515.00
2017-10-13T04:36:14.655Z,98517.16
2017-10-13T04:36:46.306Z,98512.06
2017-10-13T04:37:17.953Z,98515.04
2017-10-13T04:37:49.601Z,98517.16
2017-10-13T04:38:21.250Z,98512.48
2017-10-13T04:38:53.127Z,98517.59
2017-10-13T04:39:24.791Z,98516.31
2017-10-13T04:39:56.449Z,98514.61
2017-10-13T04:40:28.101Z,98515.04
2017-10-13T04:40:59.749Z,98517.59
2017-10-13T04:41:31.646Z,98518.86
2017-10-13T04:42:03.293Z,98515.46
2017-10-13T04:42:34.950Z,98511.64
2017-10-13T04:43:06.903Z,98516.34
2017-10-13T04:43:38.852Z,98516.34
2017-10-13T04:44:10.505Z,98514.22
2017-10-13T04:44:42.154Z,98513.37
2017-10-13T04:45:13.797Z,98508.69
2017-10-13T04:45:45.449Z,98504.86
2017-10-13T04:46:17.097Z,98507.41
2017-10-13T04:46:48.979Z,98506.99
2017-10-13T04:47:20.681Z,98501.89
2017-10-13T04:47:52.325Z,98509.12
2017-10-13T04:48:23.973Z,98505.72
2017-10-13T04:48:55.617Z,98504.86
2017-10-13T04:49:27.274Z,98510.78
2017-10-13T04:49:59.169Z,98501.86
2017-10-13T04:50:30.817Z,98501.86
2017-10-13T04:51:02.462Z,98509.52
2017-10-13T04:51:34.109Z,98501.00
2017-10-13T04:52:05.757Z,98505.26
2017-10-13T04:52:37.449Z,98503.52
2017-10-13T04:53:09.327Z,98503.10
2017-10-13T04:53:40.977Z,98500.58
2017-10-13T04:54:12.626Z,98499.27
2017-10-13T04:54:44.480Z,98505.23
2017-10-13T04:55:16.134Z,98503.53
2017-10-13T04:55:47.777Z,98504.77
2017-10-13T04:56:19.425Z,98499.67
2017-10-13T04:56:51.326Z,98498.39
2017-10-13T04:57:23.076Z,98494.98
2017-10-13T04:57:54.725Z,98501.77
2017-10-13T04:58:26.406Z,98499.21
2017-10-13T04:58:58.053Z,98498.36
2017-10-13T04:59:29.952Z,98499.64
2017-10-13T05:00:01.618Z,98499.64
2017-10-13T05:00:33.265Z,98503.86
2017-10-13T05:01:04.913Z,98494.92
2017-10-13T05:01:36.557Z,98505.52
2017-10-13T05:02:08.225Z,98497.87
2017-10-13T05:02:40.107Z,98499.14
2017-10-13T05:03:12.060Z,98503.40
2017-10-13T05:03:43.709Z,98502.52
2017-10-13T05:04:15.349Z,98500.39
2017-10-13T05:04:47.038Z,98501.20
2017-10-13T05:05:18.934Z,98502.94
2017-10-13T05:05:50.594Z,98508.86
2017-10-13T05:06:22.246Z,98509.71
2017-10-13T05:06:53.897Z,98510.98
2017-10-13T05:07:25.541Z,98506.31
2017-10-13T05:07:57.451Z,98506.27
2017-10-13T05:08:29.314Z,98508.02
2017-10-13T05:09:00.962Z,98502.02
2017-10-13T05:09:32.609Z,98503.72
2017-10-13T05:10:04.297Z,98511.38
2017-10-13T05:10:35.965Z,98509.67
2017-10-13T05:11:07.832Z,98512.66
2017-10-13T05:11:39.481Z,98506.70
2017-10-13T05:12:11.134Z,98506.27
2017-10-13T05:12:42.785Z,98504.57
2017-10-13T05:13:14.485Z,98504.97
2017-10-13T05:13:46.134Z,98507.52
2017-10-13T05:14:17.790Z,98509.64
2017-10-13T05:14:49.437Z,98506.63
2017-10-13T05:15:21.078Z,98504.08
2017-10-13T05:15:52.721Z,98505.78
2017-10-13T05:16:24.365Z,98502.41
2017-10-13T05:16:56.014Z,98505.39
2017-10-13T05:17:27.661Z,98511.77
2017-10-13T05:18:00.072Z,98504.97
2017-10-13T05:18:31.828Z,98505.81
2017-10-13T05:19:03.477Z,98507.09
2017-10-13T05:19:35.127Z,98505.81
2017-10-13T05:20:06.778Z,98505.81
2017-10-13T05:20:38.461Z,98496.88
2017-10-13T05:21:10.304Z,98500.28
2017-10-13T05:21:41.981Z,98506.24
2017-10-13T05:22:13.630Z,98500.71
2017-10-13T05:22:45.283Z,98501.14
2017-10-13T05:23:16.930Z,98504.97
2017-10-13T05:23:48.581Z,98506.24
2017-10-13T05:24:20.265Z,98505.81
2017-10-13T05:24:52.119Z,98504.12
2017-10-13T05:25:23.782Z,98509.22
2017-10-13T05:25:55.433Z,98504.12
2017-10-13T05:26:27.088Z,98513.08
2017-10-13T05:26:59.018Z,98511.38
2017-10-13T05:27:30.679Z,98511.38
2017-10-13T05:28:02.335Z,98513.93
2017-10-13T05:28:33.977Z,98513.08
2017-10-13T05:29:05.626Z,98513.11
2017-10-13T05:29:37.421Z,98514.81
2017-10-13T05:30:09.176Z,98516.94
2017-10-13T05:30:40.829Z,98520.77
2017-10-13T05:31:12.475Z,98516.94
2017-10-13T05:31:44.124Z,98522.05
2017-10-13T05:32:16.046Z,98523.36
2017-10-13T05:32:48.000Z,98524.20
2017-10-13T05:33:19.651Z,98527.18
2017-10-13T05:33:51.305Z,98531.02
2017-10-13T05:34:22.953Z,98527.18
2017-10-13T05:34:54.622Z,98525.48
2017-10-13T05:35:26.273Z,98525.05
2017-10-13T05:35:57.921Z,98532.71
2017-10-13T05:36:29.806Z,98528.45
2017-10-13T05:37:01.459Z,98527.18
2017-10-13T05:37:33.149Z,98532.28
2017-10-13T05:38:04.802Z,98534.02
2017-10-13T05:38:36.675Z,98532.31
2017-10-13T05:39:08.333Z,98534.05
2017-10-13T05:39:39.978Z,98534.91
2017-10-13T05:40:11.664Z,98533.62
2017-10-13T05:40:43.313Z,98532.80
2017-10-13T05:41:15.192Z,98530.25
2017-10-13T05:41:46.875Z,98532.80
2017-10-13T05:42:18.537Z,98534.51
2017-10-13T05:42:50.229Z,98533.23
2017-10-13T05:43:21.894Z,98531.11
2017-10-13T05:43:53.541Z,98536.63
2017-10-13T05:44:25.190Z,98534.08
2017-10-13T05:44:56.838Z,98531.95
2017-10-13T05:45:28.489Z,98531.98
2017-10-13T05:46:00.277Z,98533.27
2017-10-13T05:46:31.929Z,98534.93
2017-10-13T05:47:03.581Z,98537.52
2017-10-13T05:47:35.229Z,98538.79
2017-10-13T05:48:07.148Z,98539.22
2017-10-13T05:48:39.101Z,98540.06
2017-10-13T05:49:10.937Z,98536.27
2017-10-13T05:49:42.691Z,98538.39
2017-10-13T05:50:14.342Z,98537.12
2017-10-13T05:50:46.002Z,98548.20
2017-10-13T05:51:17.645Z,98549.05
2017-10-13T05:51:49.289Z,98543.10
2017-10-13T05:52:20.938Z,98543.92
2017-10-13T05:52:52.587Z,98543.07
2017-10-13T05:53:24.491Z,98546.90
2017-10-13T05:53:56.143Z,98542.25
2017-10-13T05:54:27.797Z,98540.09
2017-10-13T05:54:59.449Z,98538.85
2017-10-13T05:55:31.097Z,98539.28
2017-10-13T05:56:02.738Z,98533.32
2017-10-13T05:56:34.389Z,98541.83
2017-10-13T05:57:06.045Z,98539.24
2017-10-13T05:57:37.689Z,98536.27
2017-10-13T05:58:09.333Z,98535.88
2017-10-13T05:58:41.022Z,98538.84
2017-10-13T05:59:12.672Z,98538.84
2017-10-13T05:59:44.313Z,98540.97
2017-10-13T06:00:15.957Z,98542.25
2017-10-13T06:00:47.786Z,98545.65
2017-10-13T06:01:19.634Z,98546.08
2017-10-13T06:01:51.285Z,98546.08
2017-10-13T06:02:23.172Z,98541.43
2017-10-13T06:02:54.968Z,98550.36
2017-10-13T06:03:26.620Z,98551.20
2017-10-13T06:03:58.269Z,98547.80
2017-10-13T06:04:29.914Z,98545.25
2017-10-13T06:05:01.724Z,98553.76
2017-10-13T06:05:33.484Z,98554.18
2017-10-13T06:06:05.463Z,98555.06
2017-10-13T06:06:37.646Z,98550.81
2017-10-13T06:07:09.332Z,98557.19
2017-10-13T06:07:41.546Z,98557.61
2017-10-13T06:08:13.426Z,98555.91
2017-10-13T06:08:45.179Z,98549.11
2017-10-13T06:09:16.873Z,98558.46
2017-10-13T06:09:48.709Z,98564.87
2017-10-13T06:10:20.365Z,98561.05
2017-10-13T06:10:52.029Z,98556.36
2017-10-13T06:11:23.709Z,98556.79
2017-10-13T06:11:55.357Z,98556.36
2017-10-13T06:12:27.002Z,98555.94
2017-10-13T06:12:58.685Z,98561.47
2017-10-13T06:13:30.524Z,98556.79
2017-10-13T06:14:02.174Z,98554.66
2017-10-13T06:14:33.834Z,98552.11
2017-10-13T06:15:05.495Z,98557.24
2017-10-13T06:15:37.190Z,98559.37
2017-10-13T06:16:09.122Z,98553.45
2017-10-13T06:16:40.769Z,98561.07
2017-10-13T06:17:12.425Z,98559.80
2017-10-13T06:17:44.086Z,98562.77
2017-10-13T06:18:15.936Z,98561.92